sensor_id;sensor_type;location;lat;lon;timestamp;temperature;humidity
10411;DHT22;5251;52.112;8.606;2023-07-22T00:00:15;14.80;99.90
10411;DHT22;5251;52.112;8.606;2023-07-22T00:02:43;14.70;99.90
10411;DHT22;5251;52.112;8.606;2023-07-22T00:05:09;14.70;99.90
10411;DHT22;5251;52.112;8.606;2023-07-22T00:07:38;14.70;99.90
10411;DHT22;5251;52.112;8.606;2023-07-22T00:10:06;14.60;99.90
10411;DHT22;5251;52.112;8.606;2023-07-22T00:12:34;14.60;99.90
10411;DHT22;5251;52.112;8.606;2023-07-22T00:15:00;14.60;99.90
10411;DHT22;5251;52.112;8.606;2023-07-22T00:17:25;14.60;99.90
10411;DHT22;5251;52.112;8.606;2023-07-22T00:19:51;14.60;99.90
10411;DHT22;5251;52.112;8.606;2023-07-22T00:22:16;14.50;99.90
10411;DHT22;5251;52.112;8.606;2023-07-22T00:24:42;14.50;99.90
10411;DHT22;5251;52.112;8.606;2023-07-22T00:27:08;14.50;99.90
10411;DHT22;5251;52.112;8.606;2023-07-22T00:29:34;14.40;99.90
10411;DHT22;5251;52.112;8.606;2023-07-22T00:32:00;14.40;99.90
10411;DHT22;5251;52.112;8.606;2023-07-22T00:34:25;14.40;99.90
10411;DHT22;5251;52.112;8.606;2023-07-22T00:36:51;14.40;99.90
10411;DHT22;5251;52.112;8.606;2023-07-22T00:39:17;14.40;99.90
10411;DHT22;5251;52.112;8.606;2023-07-22T00:41:43;14.40;99.90
10411;DHT22;5251;52.112;8.606;2023-07-22T00:44:10;14.40;99.90
10411;DHT22;5251;52.112;8.606;2023-07-22T00:46:38;14.40;99.90
10411;DHT22;5251;52.112;8.606;2023-07-22T00:49:05;14.50;99.90
10411;DHT22;5251;52.112;8.606;2023-07-22T00:51:32;14.50;99.90
10411;DHT22;5251;52.112;8.606;2023-07-22T00:53:57;14.50;99.90
10411;DHT22;5251;52.112;8.606;2023-07-22T00:56:23;14.60;99.90
10411;DHT22;5251;52.112;8.606;2023-07-22T00:58:49;14.70;99.90
10411;DHT22;5251;52.112;8.606;2023-07-22T01:01:15;14.70;99.90
10411;DHT22;5251;52.112;8.606;2023-07-22T01:03:42;14.70;99.90
10411;DHT22;5251;52.112;8.606;2023-07-22T01:06:08;14.70;99.90
10411;DHT22;5251;52.112;8.606;2023-07-22T01:08:34;14.80;99.90
10411;DHT22;5251;52.112;8.606;2023-07-22T01:11:00;14.80;99.90
10411;DHT22;5251;52.112;8.606;2023-07-22T01:13:25;14.90;99.90
10411;DHT22;5251;52.112;8.606;2023-07-22T01:15:51;14.90;99.90
10411;DHT22;5251;52.112;8.606;2023-07-22T01:18:17;14.90;99.90
10411;DHT22;5251;52.112;8.606;2023-07-22T01:20:43;14.90;99.90
10411;DHT22;5251;52.112;8.606;2023-07-22T01:23:09;14.90;99.90
10411;DHT22;5251;52.112;8.606;2023-07-22T01:25:35;15.00;99.90
10411;DHT22;5251;52.112;8.606;2023-07-22T01:28:00;14.90;99.90
10411;DHT22;5251;52.112;8.606;2023-07-22T01:30:26;15.00;99.90
10411;DHT22;5251;52.112;8.606;2023-07-22T01:32:53;15.00;99.90
10411;DHT22;5251;52.112;8.606;2023-07-22T01:35:18;14.90;99.90
10411;DHT22;5251;52.112;8.606;2023-07-22T01:37:45;15.00;99.90
10411;DHT22;5251;52.112;8.606;2023-07-22T01:40:11;14.90;99.90
10411;DHT22;5251;52.112;8.606;2023-07-22T01:42:41;14.90;99.90
10411;DHT22;5251;52.112;8.606;2023-07-22T01:45:08;14.90;99.90
10411;DHT22;5251;52.112;8.606;2023-07-22T01:47:35;14.80;99.90
10411;DHT22;5251;52.112;8.606;2023-07-22T01:50:02;14.80;99.90
10411;DHT22;5251;52.112;8.606;2023-07-22T01:52:27;14.70;99.90
10411;DHT22;5251;52.112;8.606;2023-07-22T01:54:53;14.70;99.90
10411;DHT22;5251;52.112;8.606;2023-07-22T01:57:18;14.70;99.90
10411;DHT22;5251;52.112;8.606;2023-07-22T01:59:44;14.70;99.90
10411;DHT22;5251;52.112;8.606;2023-07-22T02:02:10;14.70;99.90
10411;DHT22;5251;52.112;8.606;2023-07-22T02:04:35;14.70;99.90
10411;DHT22;5251;52.112;8.606;2023-07-22T02:07:01;14.60;99.90
10411;DHT22;5251;52.112;8.606;2023-07-22T02:09:26;14.60;99.90
10411;DHT22;5251;52.112;8.606;2023-07-22T02:11:52;14.50;99.90
10411;DHT22;5251;52.112;8.606;2023-07-22T02:14:19;14.50;99.90
10411;DHT22;5251;52.112;8.606;2023-07-22T02:16:44;14.50;99.90
10411;DHT22;5251;52.112;8.606;2023-07-22T02:19:10;14.50;99.90
10411;DHT22;5251;52.112;8.606;2023-07-22T02:21:36;14.40;99.90
10411;DHT22;5251;52.112;8.606;2023-07-22T02:24:01;14.40;99.90
10411;DHT22;5251;52.112;8.606;2023-07-22T02:26:27;14.40;99.90
10411;DHT22;5251;52.112;8.606;2023-07-22T02:28:53;14.30;99.90
10411;DHT22;5251;52.112;8.606;2023-07-22T02:31:20;14.30;99.90
10411;DHT22;5251;52.112;8.606;2023-07-22T02:33:47;14.30;99.90
10411;DHT22;5251;52.112;8.606;2023-07-22T02:36:13;14.20;99.90
10411;DHT22;5251;52.112;8.606;2023-07-22T02:38:38;14.20;99.90
10411;DHT22;5251;52.112;8.606;2023-07-22T02:41:04;14.20;99.90
10411;DHT22;5251;52.112;8.606;2023-07-22T02:43:33;14.10;99.90
10411;DHT22;5251;52.112;8.606;2023-07-22T02:46:02;14.10;99.90
10411;DHT22;5251;52.112;8.606;2023-07-22T02:48:28;14.10;99.90
10411;DHT22;5251;52.112;8.606;2023-07-22T02:50:54;14.10;99.90
10411;DHT22;5251;52.112;8.606;2023-07-22T02:53:20;14.00;99.90
10411;DHT22;5251;52.112;8.606;2023-07-22T02:55:46;14.00;99.90
10411;DHT22;5251;52.112;8.606;2023-07-22T02:58:12;13.90;99.90
10411;DHT22;5251;52.112;8.606;2023-07-22T03:00:38;13.90;99.90
10411;DHT22;5251;52.112;8.606;2023-07-22T03:03:04;13.90;99.90
10411;DHT22;5251;52.112;8.606;2023-07-22T03:05:31;13.90;99.90
10411;DHT22;5251;52.112;8.606;2023-07-22T03:07:58;13.90;99.90
10411;DHT22;5251;52.112;8.606;2023-07-22T03:10:24;13.90;99.90
10411;DHT22;5251;52.112;8.606;2023-07-22T03:12:55;13.90;99.90
10411;DHT22;5251;52.112;8.606;2023-07-22T03:15:22;13.90;99.90
10411;DHT22;5251;52.112;8.606;2023-07-22T03:17:47;13.80;99.90
10411;DHT22;5251;52.112;8.606;2023-07-22T03:20:13;13.80;99.90
10411;DHT22;5251;52.112;8.606;2023-07-22T03:22:43;13.80;99.90
10411;DHT22;5251;52.112;8.606;2023-07-22T03:25:12;13.80;99.90
10411;DHT22;5251;52.112;8.606;2023-07-22T03:27:38;13.90;99.90
10411;DHT22;5251;52.112;8.606;2023-07-22T03:30:05;13.90;99.90
10411;DHT22;5251;52.112;8.606;2023-07-22T03:32:36;13.90;99.90
10411;DHT22;5251;52.112;8.606;2023-07-22T03:35:02;14.00;99.90
10411;DHT22;5251;52.112;8.606;2023-07-22T03:37:28;14.00;99.90
10411;DHT22;5251;52.112;8.606;2023-07-22T03:39:54;14.00;99.90
10411;DHT22;5251;52.112;8.606;2023-07-22T03:42:20;14.00;99.90
10411;DHT22;5251;52.112;8.606;2023-07-22T03:44:45;14.10;99.90
10411;DHT22;5251;52.112;8.606;2023-07-22T03:47:11;14.20;99.90
10411;DHT22;5251;52.112;8.606;2023-07-22T03:49:36;14.20;99.90
10411;DHT22;5251;52.112;8.606;2023-07-22T03:52:02;14.30;99.90
10411;DHT22;5251;52.112;8.606;2023-07-22T03:54:28;14.30;99.90
10411;DHT22;5251;52.112;8.606;2023-07-22T03:56:53;14.30;99.90
10411;DHT22;5251;52.112;8.606;2023-07-22T03:59:19;14.40;99.90
10411;DHT22;5251;52.112;8.606;2023-07-22T04:01:45;14.50;99.90
10411;DHT22;5251;52.112;8.606;2023-07-22T04:04:12;14.50;99.90
10411;DHT22;5251;52.112;8.606;2023-07-22T04:06:37;14.50;99.90
10411;DHT22;5251;52.112;8.606;2023-07-22T04:09:03;14.60;99.90
10411;DHT22;5251;52.112;8.606;2023-07-22T04:11:28;14.60;99.90
10411;DHT22;5251;52.112;8.606;2023-07-22T04:13:54;14.70;99.90
10411;DHT22;5251;52.112;8.606;2023-07-22T04:16:20;14.70;99.90
10411;DHT22;5251;52.112;8.606;2023-07-22T04:18:45;14.80;99.90
10411;DHT22;5251;52.112;8.606;2023-07-22T04:21:11;14.80;99.90
10411;DHT22;5251;52.112;8.606;2023-07-22T04:23:37;14.80;99.90
10411;DHT22;5251;52.112;8.606;2023-07-22T04:26:03;14.90;99.90
10411;DHT22;5251;52.112;8.606;2023-07-22T04:28:36;14.90;99.90
10411;DHT22;5251;52.112;8.606;2023-07-22T04:31:01;14.90;99.90
10411;DHT22;5251;52.112;8.606;2023-07-22T04:33:27;15.00;99.90
10411;DHT22;5251;52.112;8.606;2023-07-22T04:35:59;15.00;99.90
10411;DHT22;5251;52.112;8.606;2023-07-22T04:38:25;15.00;99.90
10411;DHT22;5251;52.112;8.606;2023-07-22T04:40:50;15.10;99.90
10411;DHT22;5251;52.112;8.606;2023-07-22T04:43:16;15.20;99.90
10411;DHT22;5251;52.112;8.606;2023-07-22T04:45:44;15.20;99.90
10411;DHT22;5251;52.112;8.606;2023-07-22T04:48:10;15.30;99.90
10411;DHT22;5251;52.112;8.606;2023-07-22T04:50:36;15.30;99.90
10411;DHT22;5251;52.112;8.606;2023-07-22T04:53:05;15.40;99.90
10411;DHT22;5251;52.112;8.606;2023-07-22T04:55:32;15.40;99.90
10411;DHT22;5251;52.112;8.606;2023-07-22T04:57:58;15.50;99.90
10411;DHT22;5251;52.112;8.606;2023-07-22T05:00:23;15.50;99.90
10411;DHT22;5251;52.112;8.606;2023-07-22T05:02:49;15.60;99.90
10411;DHT22;5251;52.112;8.606;2023-07-22T05:05:16;15.70;99.90
10411;DHT22;5251;52.112;8.606;2023-07-22T05:07:42;15.70;99.90
10411;DHT22;5251;52.112;8.606;2023-07-22T05:10:08;15.80;99.90
10411;DHT22;5251;52.112;8.606;2023-07-22T05:12:38;15.80;99.90
10411;DHT22;5251;52.112;8.606;2023-07-22T05:15:04;15.90;99.90
10411;DHT22;5251;52.112;8.606;2023-07-22T05:17:30;15.90;99.90
10411;DHT22;5251;52.112;8.606;2023-07-22T05:19:57;16.00;99.90
10411;DHT22;5251;52.112;8.606;2023-07-22T05:22:22;16.10;99.90
10411;DHT22;5251;52.112;8.606;2023-07-22T05:24:48;16.20;99.90
10411;DHT22;5251;52.112;8.606;2023-07-22T05:27:13;16.20;99.90
10411;DHT22;5251;52.112;8.606;2023-07-22T05:29:40;16.30;99.90
10411;DHT22;5251;52.112;8.606;2023-07-22T05:32:06;16.30;99.90
10411;DHT22;5251;52.112;8.606;2023-07-22T05:34:32;16.40;99.90
10411;DHT22;5251;52.112;8.606;2023-07-22T05:36:57;16.50;99.90
10411;DHT22;5251;52.112;8.606;2023-07-22T05:39:23;16.50;99.90
10411;DHT22;5251;52.112;8.606;2023-07-22T05:41:48;16.60;99.90
10411;DHT22;5251;52.112;8.606;2023-07-22T05:44:14;16.60;99.90
10411;DHT22;5251;52.112;8.606;2023-07-22T05:46:40;16.70;99.90
10411;DHT22;5251;52.112;8.606;2023-07-22T05:49:05;16.70;99.90
10411;DHT22;5251;52.112;8.606;2023-07-22T05:51:31;16.80;99.90
10411;DHT22;5251;52.112;8.606;2023-07-22T05:53:56;16.80;99.90
10411;DHT22;5251;52.112;8.606;2023-07-22T05:56:23;16.90;99.90
10411;DHT22;5251;52.112;8.606;2023-07-22T05:58:48;17.00;99.90
10411;DHT22;5251;52.112;8.606;2023-07-22T06:01:14;17.10;99.90
10411;DHT22;5251;52.112;8.606;2023-07-22T06:03:40;17.20;99.90
10411;DHT22;5251;52.112;8.606;2023-07-22T06:06:06;17.40;99.90
10411;DHT22;5251;52.112;8.606;2023-07-22T06:08:32;17.60;99.90
10411;DHT22;5251;52.112;8.606;2023-07-22T06:10:57;17.80;99.90
10411;DHT22;5251;52.112;8.606;2023-07-22T06:13:23;17.90;99.90
10411;DHT22;5251;52.112;8.606;2023-07-22T06:15:48;18.10;99.90
10411;DHT22;5251;52.112;8.606;2023-07-22T06:18:14;18.20;99.90
10411;DHT22;5251;52.112;8.606;2023-07-22T06:20:39;18.40;99.90
10411;DHT22;5251;52.112;8.606;2023-07-22T06:23:05;18.50;99.90
10411;DHT22;5251;52.112;8.606;2023-07-22T06:25:31;18.70;99.90
10411;DHT22;5251;52.112;8.606;2023-07-22T06:27:57;18.80;99.90
10411;DHT22;5251;52.112;8.606;2023-07-22T06:30:22;18.90;99.90
10411;DHT22;5251;52.112;8.606;2023-07-22T06:32:48;19.00;99.90
10411;DHT22;5251;52.112;8.606;2023-07-22T06:35:14;19.10;99.90
10411;DHT22;5251;52.112;8.606;2023-07-22T06:37:39;19.30;99.90
10411;DHT22;5251;52.112;8.606;2023-07-22T06:40:06;19.40;99.90
10411;DHT22;5251;52.112;8.606;2023-07-22T06:42:32;19.50;99.90
10411;DHT22;5251;52.112;8.606;2023-07-22T06:44:58;19.60;99.90
10411;DHT22;5251;52.112;8.606;2023-07-22T06:47:23;19.70;99.90
10411;DHT22;5251;52.112;8.606;2023-07-22T06:49:49;19.70;99.90
10411;DHT22;5251;52.112;8.606;2023-07-22T06:52:16;19.80;99.90
10411;DHT22;5251;52.112;8.606;2023-07-22T06:54:41;19.90;99.90
10411;DHT22;5251;52.112;8.606;2023-07-22T06:57:07;19.90;99.90
10411;DHT22;5251;52.112;8.606;2023-07-22T06:59:33;20.00;99.90
10411;DHT22;5251;52.112;8.606;2023-07-22T07:01:58;20.10;99.90
10411;DHT22;5251;52.112;8.606;2023-07-22T07:04:24;20.20;99.90
10411;DHT22;5251;52.112;8.606;2023-07-22T07:06:50;20.30;99.90
10411;DHT22;5251;52.112;8.606;2023-07-22T07:09:16;20.40;99.90
10411;DHT22;5251;52.112;8.606;2023-07-22T07:11:42;20.50;99.90
10411;DHT22;5251;52.112;8.606;2023-07-22T07:14:07;20.60;99.90
10411;DHT22;5251;52.112;8.606;2023-07-22T07:16:33;20.80;99.90
10411;DHT22;5251;52.112;8.606;2023-07-22T07:19:00;20.90;99.90
10411;DHT22;5251;52.112;8.606;2023-07-22T07:21:26;21.00;99.90
10411;DHT22;5251;52.112;8.606;2023-07-22T07:23:52;21.10;99.90
10411;DHT22;5251;52.112;8.606;2023-07-22T07:26:19;21.30;99.90
10411;DHT22;5251;52.112;8.606;2023-07-22T07:28:45;21.30;99.90
10411;DHT22;5251;52.112;8.606;2023-07-22T07:31:11;21.40;99.90
10411;DHT22;5251;52.112;8.606;2023-07-22T07:33:37;21.50;99.90
10411;DHT22;5251;52.112;8.606;2023-07-22T07:36:03;21.50;99.90
10411;DHT22;5251;52.112;8.606;2023-07-22T07:38:29;21.70;99.90
10411;DHT22;5251;52.112;8.606;2023-07-22T07:40:57;21.70;99.90
10411;DHT22;5251;52.112;8.606;2023-07-22T07:43:23;21.80;99.90
10411;DHT22;5251;52.112;8.606;2023-07-22T07:45:49;22.00;99.90
10411;DHT22;5251;52.112;8.606;2023-07-22T07:48:14;22.10;99.90
10411;DHT22;5251;52.112;8.606;2023-07-22T07:50:41;22.20;99.90
10411;DHT22;5251;52.112;8.606;2023-07-22T07:53:06;22.30;99.90
10411;DHT22;5251;52.112;8.606;2023-07-22T07:55:32;22.40;99.90
10411;DHT22;5251;52.112;8.606;2023-07-22T07:57:58;22.50;99.90
10411;DHT22;5251;52.112;8.606;2023-07-22T08:00:23;22.60;99.90
10411;DHT22;5251;52.112;8.606;2023-07-22T08:02:49;22.70;99.90
10411;DHT22;5251;52.112;8.606;2023-07-22T08:05:15;22.80;99.90
10411;DHT22;5251;52.112;8.606;2023-07-22T08:07:41;22.90;99.90
10411;DHT22;5251;52.112;8.606;2023-07-22T08:10:07;23.10;99.90
10411;DHT22;5251;52.112;8.606;2023-07-22T08:12:33;23.20;99.90
10411;DHT22;5251;52.112;8.606;2023-07-22T08:14:59;23.40;99.90
10411;DHT22;5251;52.112;8.606;2023-07-22T08:17:25;23.60;99.90
10411;DHT22;5251;52.112;8.606;2023-07-22T08:19:51;23.70;99.90
10411;DHT22;5251;52.112;8.606;2023-07-22T08:22:16;23.90;99.90
10411;DHT22;5251;52.112;8.606;2023-07-22T08:24:43;24.00;99.90
10411;DHT22;5251;52.112;8.606;2023-07-22T08:27:09;24.10;99.90
10411;DHT22;5251;52.112;8.606;2023-07-22T08:29:34;24.10;99.90
10411;DHT22;5251;52.112;8.606;2023-07-22T08:32:00;24.20;99.90
10411;DHT22;5251;52.112;8.606;2023-07-22T08:34:25;24.20;99.90
10411;DHT22;5251;52.112;8.606;2023-07-22T08:36:51;24.30;99.90
10411;DHT22;5251;52.112;8.606;2023-07-22T08:39:18;24.30;99.90
10411;DHT22;5251;52.112;8.606;2023-07-22T08:41:49;24.30;99.90
10411;DHT22;5251;52.112;8.606;2023-07-22T08:44:19;24.30;99.90
10411;DHT22;5251;52.112;8.606;2023-07-22T08:46:45;24.40;99.90
10411;DHT22;5251;52.112;8.606;2023-07-22T08:49:12;24.40;99.90
10411;DHT22;5251;52.112;8.606;2023-07-22T08:51:38;24.60;99.90
10411;DHT22;5251;52.112;8.606;2023-07-22T08:54:05;24.60;99.90
10411;DHT22;5251;52.112;8.606;2023-07-22T08:56:31;24.70;99.90
10411;DHT22;5251;52.112;8.606;2023-07-22T08:58:57;24.80;99.90
10411;DHT22;5251;52.112;8.606;2023-07-22T09:01:23;24.90;99.90
10411;DHT22;5251;52.112;8.606;2023-07-22T09:03:49;24.90;99.90
10411;DHT22;5251;52.112;8.606;2023-07-22T09:06:18;24.90;99.90
10411;DHT22;5251;52.112;8.606;2023-07-22T09:08:45;24.90;99.90
10411;DHT22;5251;52.112;8.606;2023-07-22T09:11:11;24.90;99.90
10411;DHT22;5251;52.112;8.606;2023-07-22T09:13:37;24.90;99.90
10411;DHT22;5251;52.112;8.606;2023-07-22T09:16:06;25.00;99.90
10411;DHT22;5251;52.112;8.606;2023-07-22T09:18:34;25.10;99.90
10411;DHT22;5251;52.112;8.606;2023-07-22T09:21:00;25.20;99.90
10411;DHT22;5251;52.112;8.606;2023-07-22T09:23:36;25.30;99.90
10411;DHT22;5251;52.112;8.606;2023-07-22T09:26:13;25.40;99.90
10411;DHT22;5251;52.112;8.606;2023-07-22T09:31:14;25.60;99.30
10411;DHT22;5251;52.112;8.606;2023-07-22T09:33:39;25.70;98.40
10411;DHT22;5251;52.112;8.606;2023-07-22T09:36:05;25.80;97.20
10411;DHT22;5251;52.112;8.606;2023-07-22T09:38:30;25.90;97.20
10411;DHT22;5251;52.112;8.606;2023-07-22T09:40:56;25.90;97.20
10411;DHT22;5251;52.112;8.606;2023-07-22T09:43:23;25.90;97.40
10411;DHT22;5251;52.112;8.606;2023-07-22T09:45:49;26.00;95.70
10411;DHT22;5251;52.112;8.606;2023-07-22T09:48:15;26.00;96.10
10411;DHT22;5251;52.112;8.606;2023-07-22T09:50:41;26.00;95.50
10411;DHT22;5251;52.112;8.606;2023-07-22T09:53:06;26.10;95.30
10411;DHT22;5251;52.112;8.606;2023-07-22T09:55:33;26.10;95.90
10411;DHT22;5251;52.112;8.606;2023-07-22T09:58:03;26.20;96.00
10411;DHT22;5251;52.112;8.606;2023-07-22T10:00:35;26.30;95.20
10411;DHT22;5251;52.112;8.606;2023-07-22T10:03:09;26.30;94.90
10411;DHT22;5251;52.112;8.606;2023-07-22T10:05:35;26.30;93.40
10411;DHT22;5251;52.112;8.606;2023-07-22T10:08:02;26.20;92.60
10411;DHT22;5251;52.112;8.606;2023-07-22T10:10:32;26.10;92.30
10411;DHT22;5251;52.112;8.606;2023-07-22T10:12:58;26.00;92.60
10411;DHT22;5251;52.112;8.606;2023-07-22T10:15:27;25.80;92.10
10411;DHT22;5251;52.112;8.606;2023-07-22T10:17:55;25.60;92.10
10411;DHT22;5251;52.112;8.606;2023-07-22T10:20:22;25.40;92.50
10411;DHT22;5251;52.112;8.606;2023-07-22T10:22:49;25.30;93.50
10411;DHT22;5251;52.112;8.606;2023-07-22T10:25:16;25.20;93.60
10411;DHT22;5251;52.112;8.606;2023-07-22T10:27:42;25.20;93.90
10411;DHT22;5251;52.112;8.606;2023-07-22T10:30:13;25.20;94.30
10411;DHT22;5251;52.112;8.606;2023-07-22T10:32:44;25.20;94.00
10411;DHT22;5251;52.112;8.606;2023-07-22T10:35:12;25.30;93.50
10411;DHT22;5251;52.112;8.606;2023-07-22T10:37:45;25.50;93.20
10411;DHT22;5251;52.112;8.606;2023-07-22T10:40:26;25.60;93.10
10411;DHT22;5251;52.112;8.606;2023-07-22T10:43:03;25.80;93.00
10411;DHT22;5251;52.112;8.606;2023-07-22T10:45:33;26.00;92.30
10411;DHT22;5251;52.112;8.606;2023-07-22T10:48:07;26.20;92.30
10411;DHT22;5251;52.112;8.606;2023-07-22T10:50:55;26.40;91.60
10411;DHT22;5251;52.112;8.606;2023-07-22T11:01:32;27.30;89.50
10411;DHT22;5251;52.112;8.606;2023-07-22T11:06:51;27.60;85.60
10411;DHT22;5251;52.112;8.606;2023-07-22T11:11:55;27.90;86.80
10411;DHT22;5251;52.112;8.606;2023-07-22T11:14:28;28.10;82.30
10411;DHT22;5251;52.112;8.606;2023-07-22T11:16:56;28.10;80.90
10411;DHT22;5251;52.112;8.606;2023-07-22T11:19:23;28.20;81.80
10411;DHT22;5251;52.112;8.606;2023-07-22T11:21:50;28.20;81.00
10411;DHT22;5251;52.112;8.606;2023-07-22T11:24:16;28.20;79.00
10411;DHT22;5251;52.112;8.606;2023-07-22T11:26:43;28.30;78.90
10411;DHT22;5251;52.112;8.606;2023-07-22T11:29:10;28.30;79.20
10411;DHT22;5251;52.112;8.606;2023-07-22T11:31:38;28.30;78.40
10411;DHT22;5251;52.112;8.606;2023-07-22T11:34:11;28.30;78.10
10411;DHT22;5251;52.112;8.606;2023-07-22T11:36:37;28.30;79.40
10411;DHT22;5251;52.112;8.606;2023-07-22T11:39:16;28.40;78.00
10411;DHT22;5251;52.112;8.606;2023-07-22T11:41:43;28.50;78.80
10411;DHT22;5251;52.112;8.606;2023-07-22T11:44:10;28.60;77.70
10411;DHT22;5251;52.112;8.606;2023-07-22T11:46:58;28.70;75.90
10411;DHT22;5251;52.112;8.606;2023-07-22T11:49:35;28.80;78.20
10411;DHT22;5251;52.112;8.606;2023-07-22T11:52:06;28.90;72.20
10411;DHT22;5251;52.112;8.606;2023-07-22T11:54:39;29.00;72.50
10411;DHT22;5251;52.112;8.606;2023-07-22T11:57:18;29.00;69.80
10411;DHT22;5251;52.112;8.606;2023-07-22T11:59:48;29.10;69.40
10411;DHT22;5251;52.112;8.606;2023-07-22T12:04:40;29.00;69.40
10411;DHT22;5251;52.112;8.606;2023-07-22T12:07:06;29.00;68.30
10411;DHT22;5251;52.112;8.606;2023-07-22T12:09:31;29.00;68.70
10411;DHT22;5251;52.112;8.606;2023-07-22T12:12:00;29.00;68.60
10411;DHT22;5251;52.112;8.606;2023-07-22T12:14:35;29.00;68.10
10411;DHT22;5251;52.112;8.606;2023-07-22T12:17:01;29.00;67.80
10411;DHT22;5251;52.112;8.606;2023-07-22T12:19:29;29.00;67.80
10411;DHT22;5251;52.112;8.606;2023-07-22T12:21:56;28.90;68.60
10411;DHT22;5251;52.112;8.606;2023-07-22T12:24:21;29.00;69.50
10411;DHT22;5251;52.112;8.606;2023-07-22T12:26:47;29.00;67.10
10411;DHT22;5251;52.112;8.606;2023-07-22T12:29:12;28.90;66.00
10411;DHT22;5251;52.112;8.606;2023-07-22T12:31:38;28.90;67.10
10411;DHT22;5251;52.112;8.606;2023-07-22T12:34:03;28.70;66.30
10411;DHT22;5251;52.112;8.606;2023-07-22T12:36:29;28.70;67.60
10411;DHT22;5251;52.112;8.606;2023-07-22T12:38:55;28.60;67.50
10411;DHT22;5251;52.112;8.606;2023-07-22T12:41:21;28.50;66.00
10411;DHT22;5251;52.112;8.606;2023-07-22T12:43:46;28.40;66.60
10411;DHT22;5251;52.112;8.606;2023-07-22T12:46:12;28.30;66.80
10411;DHT22;5251;52.112;8.606;2023-07-22T12:48:37;28.30;69.40
10411;DHT22;5251;52.112;8.606;2023-07-22T12:51:04;28.20;69.00
10411;DHT22;5251;52.112;8.606;2023-07-22T12:53:29;28.20;65.40
10411;DHT22;5251;52.112;8.606;2023-07-22T12:55:55;28.20;68.40
10411;DHT22;5251;52.112;8.606;2023-07-22T12:58:20;28.20;66.70
10411;DHT22;5251;52.112;8.606;2023-07-22T13:00:46;28.20;67.70
10411;DHT22;5251;52.112;8.606;2023-07-22T13:03:12;28.30;68.50
10411;DHT22;5251;52.112;8.606;2023-07-22T13:05:37;28.40;67.20
10411;DHT22;5251;52.112;8.606;2023-07-22T13:08:03;28.50;66.60
10411;DHT22;5251;52.112;8.606;2023-07-22T13:10:38;28.50;66.20
10411;DHT22;5251;52.112;8.606;2023-07-22T13:13:05;28.50;64.90
10411;DHT22;5251;52.112;8.606;2023-07-22T13:15:32;28.60;65.00
10411;DHT22;5251;52.112;8.606;2023-07-22T13:17:57;28.60;64.20
10411;DHT22;5251;52.112;8.606;2023-07-22T13:20:23;28.60;63.10
10411;DHT22;5251;52.112;8.606;2023-07-22T13:22:48;28.60;62.60
10411;DHT22;5251;52.112;8.606;2023-07-22T13:25:14;28.60;63.50
10411;DHT22;5251;52.112;8.606;2023-07-22T13:27:40;28.60;64.10
10411;DHT22;5251;52.112;8.606;2023-07-22T13:30:09;28.60;63.80
10411;DHT22;5251;52.112;8.606;2023-07-22T13:32:35;28.60;64.40
10411;DHT22;5251;52.112;8.606;2023-07-22T13:35:01;28.60;64.40
10411;DHT22;5251;52.112;8.606;2023-07-22T13:37:26;28.70;65.00
10411;DHT22;5251;52.112;8.606;2023-07-22T13:39:52;28.80;66.10
10411;DHT22;5251;52.112;8.606;2023-07-22T13:42:18;28.90;66.10
10411;DHT22;5251;52.112;8.606;2023-07-22T13:44:44;28.90;64.40
10411;DHT22;5251;52.112;8.606;2023-07-22T13:47:10;29.10;66.40
10411;DHT22;5251;52.112;8.606;2023-07-22T13:49:35;29.20;63.00
10411;DHT22;5251;52.112;8.606;2023-07-22T13:52:01;29.20;62.60
10411;DHT22;5251;52.112;8.606;2023-07-22T13:54:26;29.30;61.50
10411;DHT22;5251;52.112;8.606;2023-07-22T13:56:52;29.40;64.10
10411;DHT22;5251;52.112;8.606;2023-07-22T13:59:17;29.40;62.20
10411;DHT22;5251;52.112;8.606;2023-07-22T14:01:43;29.50;62.70
10411;DHT22;5251;52.112;8.606;2023-07-22T14:04:08;29.60;63.00
10411;DHT22;5251;52.112;8.606;2023-07-22T14:06:34;29.60;59.80
10411;DHT22;5251;52.112;8.606;2023-07-22T14:09:00;29.50;59.60
10411;DHT22;5251;52.112;8.606;2023-07-22T14:11:26;29.50;60.40
10411;DHT22;5251;52.112;8.606;2023-07-22T14:13:51;29.40;60.00
10411;DHT22;5251;52.112;8.606;2023-07-22T14:16:18;29.30;58.60
10411;DHT22;5251;52.112;8.606;2023-07-22T14:18:43;29.30;57.90
10411;DHT22;5251;52.112;8.606;2023-07-22T14:21:09;29.20;58.60
10411;DHT22;5251;52.112;8.606;2023-07-22T14:23:36;29.10;58.20
10411;DHT22;5251;52.112;8.606;2023-07-22T14:26:02;29.00;58.60
10411;DHT22;5251;52.112;8.606;2023-07-22T14:28:27;28.90;59.90
10411;DHT22;5251;52.112;8.606;2023-07-22T14:30:53;28.80;59.90
10411;DHT22;5251;52.112;8.606;2023-07-22T14:33:19;28.70;60.40
10411;DHT22;5251;52.112;8.606;2023-07-22T14:35:44;28.70;61.40
10411;DHT22;5251;52.112;8.606;2023-07-22T14:38:10;28.60;61.30
10411;DHT22;5251;52.112;8.606;2023-07-22T14:40:36;28.60;61.20
10411;DHT22;5251;52.112;8.606;2023-07-22T14:43:02;28.60;60.60
10411;DHT22;5251;52.112;8.606;2023-07-22T14:45:28;28.70;60.50
10411;DHT22;5251;52.112;8.606;2023-07-22T14:47:53;28.70;59.20
10411;DHT22;5251;52.112;8.606;2023-07-22T14:50:19;28.70;60.10
10411;DHT22;5251;52.112;8.606;2023-07-22T14:52:44;28.70;58.40
10411;DHT22;5251;52.112;8.606;2023-07-22T14:55:10;28.70;59.20
10411;DHT22;5251;52.112;8.606;2023-07-22T14:57:35;28.70;59.70
10411;DHT22;5251;52.112;8.606;2023-07-22T15:00:01;28.70;59.10
10411;DHT22;5251;52.112;8.606;2023-07-22T15:02:27;28.60;58.10
10411;DHT22;5251;52.112;8.606;2023-07-22T15:04:52;28.60;59.10
10411;DHT22;5251;52.112;8.606;2023-07-22T15:07:18;28.60;59.20
10411;DHT22;5251;52.112;8.606;2023-07-22T15:09:43;28.60;58.50
10411;DHT22;5251;52.112;8.606;2023-07-22T15:12:09;28.50;60.10
10411;DHT22;5251;52.112;8.606;2023-07-22T15:14:36;28.40;60.30
10411;DHT22;5251;52.112;8.606;2023-07-22T15:17:02;28.40;59.00
10411;DHT22;5251;52.112;8.606;2023-07-22T15:19:27;28.30;59.80
10411;DHT22;5251;52.112;8.606;2023-07-22T15:21:53;28.20;59.80
10411;DHT22;5251;52.112;8.606;2023-07-22T15:24:19;28.10;60.10
10411;DHT22;5251;52.112;8.606;2023-07-22T15:26:44;28.10;60.90
10411;DHT22;5251;52.112;8.606;2023-07-22T15:29:10;28.10;59.40
10411;DHT22;5251;52.112;8.606;2023-07-22T15:31:36;28.00;59.50
10411;DHT22;5251;52.112;8.606;2023-07-22T15:34:01;28.00;60.00
10411;DHT22;5251;52.112;8.606;2023-07-22T15:36:27;28.00;60.40
10411;DHT22;5251;52.112;8.606;2023-07-22T15:38:53;28.00;59.20
10411;DHT22;5251;52.112;8.606;2023-07-22T15:41:19;27.90;57.70
10411;DHT22;5251;52.112;8.606;2023-07-22T15:43:45;27.90;58.80
10411;DHT22;5251;52.112;8.606;2023-07-22T15:46:11;27.90;58.90
10411;DHT22;5251;52.112;8.606;2023-07-22T15:48:36;27.80;58.60
10411;DHT22;5251;52.112;8.606;2023-07-22T15:51:02;27.90;59.30
10411;DHT22;5251;52.112;8.606;2023-07-22T15:53:27;27.90;59.50
10411;DHT22;5251;52.112;8.606;2023-07-22T15:55:54;27.90;59.70
10411;DHT22;5251;52.112;8.606;2023-07-22T15:58:20;27.90;60.40